createdAt,value
2019-06-26T00:01:01.588Z,99.90
2019-06-26T00:03:29.260Z,99.90
2019-06-26T00:05:56.910Z,99.90
2019-06-26T00:08:24.575Z,99.90
2019-06-26T00:10:52.274Z,99.90
2019-06-26T00:13:25.990Z,99.90
2019-06-26T00:15:49.295Z,99.90
2019-06-26T00:20:44.306Z,99.90
2019-06-26T00:23:11.948Z,99.90
2019-06-26T00:25:39.608Z,99.90
2019-06-26T00:28:07.256Z,99.90
2019-06-26T00:30:34.924Z,99.90
2019-06-26T00:33:02.646Z,99.90
2019-06-26T00:35:30.287Z,99.90
2019-06-26T00:37:57.928Z,99.90
2019-06-26T00:40:25.596Z,99.90
2019-06-26T00:42:53.250Z,99.90
2019-06-26T00:45:20.961Z,99.90
2019-06-26T00:47:48.661Z,99.90
2019-06-26T00:50:16.500Z,99.90
2019-06-26T00:52:44.221Z,99.90
2019-06-26T00:55:11.948Z,99.90
2019-06-26T00:57:39.578Z,99.90
2019-06-26T01:00:09.800Z,99.90
2019-06-26T01:02:38.403Z,99.90
2019-06-26T01:05:10.618Z,99.90
2019-06-26T01:07:38.428Z,99.90
2019-06-26T01:10:07.849Z,99.90
2019-06-26T01:12:35.552Z,99.90
2019-06-26T01:15:03.981Z,99.90
2019-06-26T01:17:31.623Z,99.90
2019-06-26T01:19:59.271Z,99.90
2019-06-26T01:22:26.989Z,99.90
2019-06-26T01:24:54.641Z,99.90
2019-06-26T01:27:22.283Z,99.90
2019-06-26T01:29:49.923Z,99.90
2019-06-26T01:32:17.574Z,99.90
2019-06-26T01:34:45.242Z,99.90
2019-06-26T01:37:12.945Z,99.90
2019-06-26T01:39:40.584Z,99.90
2019-06-26T01:42:08.243Z,99.90
2019-06-26T01:44:35.879Z,99.90
2019-06-26T01:47:03.537Z,99.90
2019-06-26T01:49:31.180Z,99.90
2019-06-26T01:51:59.895Z,99.90
2019-06-26T01:54:27.532Z,99.90
2019-06-26T01:56:55.256Z,99.90
2019-06-26T01:59:22.900Z,99.90
2019-06-26T02:01:50.720Z,99.90
2019-06-26T02:06:45.751Z,99.90
2019-06-26T02:09:13.390Z,99.90
2019-06-26T02:21:33.225Z,99.90
2019-06-26T02:24:00.872Z,99.90
2019-06-26T02:26:28.528Z,99.90
2019-06-26T02:28:56.155Z,99.90
2019-06-26T02:31:23.813Z,99.90
2019-06-26T02:33:51.454Z,99.90
2019-06-26T02:36:19.131Z,99.90
2019-06-26T02:38:46.764Z,99.90
2019-06-26T02:41:14.458Z,99.90
2019-06-26T02:43:42.228Z,99.90
2019-06-26T02:48:37.250Z,99.90
2019-06-26T02:51:04.884Z,99.90
2019-06-26T02:53:32.542Z,99.90
2019-06-26T02:56:00.200Z,99.90
2019-06-26T03:00:55.202Z,99.90
2019-06-26T03:03:22.859Z,99.90
2019-06-26T03:05:50.500Z,99.90
2019-06-26T03:08:18.147Z,99.90
2019-06-26T03:10:45.795Z,99.90
2019-06-26T03:13:13.430Z,99.90
2019-06-26T03:15:41.094Z,99.90
2019-06-26T03:18:08.813Z,99.90
2019-06-26T03:20:37.999Z,99.90
2019-06-26T03:23:05.640Z,99.90
2019-06-26T03:25:33.285Z,99.90
2019-06-26T03:28:00.950Z,99.90
2019-06-26T03:30:28.576Z,99.90
2019-06-26T03:32:56.231Z,99.90
2019-06-26T03:35:23.878Z,99.90
2019-06-26T03:37:51.536Z,99.90
2019-06-26T03:40:19.235Z,99.90
2019-06-26T03:42:46.874Z,99.90
2019-06-26T03:45:25.021Z,99.90
2019-06-26T03:47:44.076Z,99.90
2019-06-26T03:50:11.808Z,99.90
2019-06-26T03:52:39.458Z,99.90
2019-06-26T03:55:07.175Z,99.90
2019-06-26T03:57:35.525Z,99.90
2019-06-26T04:00:04.620Z,99.90
2019-06-26T04:02:33.264Z,99.90
2019-06-26T04:05:00.898Z,99.90
2019-06-26T04:07:28.615Z,99.90
2019-06-26T04:09:56.294Z,99.90
2019-06-26T04:12:23.940Z,99.90
2019-06-26T04:14:51.577Z,99.90
2019-06-26T04:17:19.206Z,99.90
2019-06-26T04:19:46.856Z,99.90
2019-06-26T04:22:14.519Z,99.90
2019-06-26T04:24:42.222Z,99.90
2019-06-26T04:27:09.872Z,99.90
2019-06-26T04:29:37.512Z,99.90
2019-06-26T04:32:05.140Z,99.90
2019-06-26T04:34:32.791Z,99.90
2019-06-26T04:37:00.433Z,99.90
2019-06-26T04:39:28.080Z,99.90
2019-06-26T04:41:55.707Z,99.90
2019-06-26T04:44:23.377Z,99.90
2019-06-26T04:46:51.016Z,99.90
2019-06-26T04:49:18.703Z,99.90
2019-06-26T04:51:46.358Z,99.90
2019-06-26T04:54:14.007Z,99.90
2019-06-26T04:56:41.652Z,99.90
2019-06-26T04:59:09.285Z,99.90
2019-06-26T05:01:36.939Z,99.90
2019-06-26T05:04:04.649Z,99.90
2019-06-26T05:06:32.294Z,99.90
2019-06-26T05:08:59.926Z,99.90
2019-06-26T05:11:27.568Z,99.90
2019-06-26T05:13:55.200Z,99.90
2019-06-26T05:16:22.849Z,99.90
2019-06-26T05:18:50.497Z,99.90
2019-06-26T05:21:18.168Z,99.90
2019-06-26T05:23:46.116Z,99.90
2019-06-26T05:26:13.843Z,99.90
2019-06-26T05:28:41.482Z,99.90
2019-06-26T05:31:09.128Z,99.90
2019-06-26T05:33:36.773Z,99.90
2019-06-26T05:38:31.809Z,99.90
2019-06-26T05:40:59.454Z,99.90
2019-06-26T05:48:21.832Z,99.90
2019-06-26T05:50:49.484Z,99.90
2019-06-26T05:58:11.944Z,99.90
2019-06-26T06:00:39.586Z,99.90
2019-06-26T06:03:07.235Z,99.90
2019-06-26T06:05:34.888Z,99.90
2019-06-26T06:08:02.559Z,99.90
2019-06-26T06:10:30.204Z,99.90
2019-06-26T06:12:57.945Z,99.90
2019-06-26T06:17:53.036Z,99.90
2019-06-26T06:20:24.892Z,99.90
2019-06-26T06:22:52.543Z,99.90
2019-06-26T06:25:20.188Z,99.90
2019-06-26T06:27:47.835Z,99.90
2019-06-26T06:30:15.676Z,99.90
2019-06-26T06:35:10.833Z,99.90
2019-06-26T06:37:38.483Z,99.90
2019-06-26T06:40:07.206Z,99.90
2019-06-26T06:42:34.915Z,99.90
2019-06-26T06:49:57.471Z,99.90
2019-06-26T06:57:19.955Z,99.90
2019-06-26T06:59:47.804Z,99.90
2019-06-26T07:02:15.503Z,99.90
2019-06-26T07:04:43.156Z,99.90
2019-06-26T07:07:10.793Z,99.90
2019-06-26T07:09:38.444Z,99.90
2019-06-26T07:12:06.169Z,99.90
2019-06-26T07:14:33.817Z,99.90
2019-06-26T07:17:01.669Z,99.90
2019-06-26T07:19:29.391Z,99.90
2019-06-26T07:21:57.024Z,99.90
2019-06-26T07:24:24.693Z,99.90
2019-06-26T07:29:19.724Z,99.90
2019-06-26T07:34:14.728Z,99.90
2019-06-26T07:36:42.395Z,99.90
2019-06-26T07:39:10.065Z,99.90
2019-06-26T07:41:37.716Z,99.90
2019-06-26T07:44:05.373Z,99.90
2019-06-26T07:46:33.012Z,99.90
2019-06-26T07:49:00.692Z,99.90
2019-06-26T07:51:28.331Z,99.90
2019-06-26T07:53:56.046Z,99.90
2019-06-26T07:56:23.678Z,99.90
2019-06-26T07:58:51.332Z,99.90
2019-06-26T08:01:18.972Z,99.90
2019-06-26T08:03:46.624Z,99.90
2019-06-26T08:06:14.271Z,99.90
2019-06-26T08:08:41.933Z,99.90
2019-06-26T08:11:09.563Z,99.90
2019-06-26T08:13:37.216Z,99.90
2019-06-26T08:16:04.870Z,99.90
2019-06-26T08:18:32.524Z,99.90
2019-06-26T08:21:11.660Z,99.90
2019-06-26T08:25:56.902Z,99.90
2019-06-26T08:28:24.545Z,99.90
2019-06-26T08:30:52.822Z,99.90
2019-06-26T08:33:22.766Z,99.90
2019-06-26T08:35:50.434Z,99.90
2019-06-26T08:38:18.056Z,99.90
2019-06-26T08:40:45.707Z,99.90
2019-06-26T08:43:13.380Z,99.90
2019-06-26T08:45:41.083Z,99.90
2019-06-26T08:50:37.764Z,99.90
2019-06-26T08:53:24.803Z,99.90
2019-06-26T08:58:19.891Z,99.90
2019-06-26T09:00:47.545Z,99.90
2019-06-26T09:03:15.191Z,99.90
2019-06-26T09:05:47.971Z,99.90
2019-06-26T09:08:12.289Z,99.90
2019-06-26T09:10:40.039Z,99.90
2019-06-26T09:13:07.683Z,99.90
2019-06-26T09:15:35.366Z,99.90
2019-06-26T09:18:03.069Z,99.90
2019-06-26T09:20:35.239Z,99.90
2019-06-26T09:23:02.886Z,99.90
2019-06-26T09:25:30.551Z,99.90
2019-06-26T09:27:58.179Z,99.90
2019-06-26T09:30:25.831Z,99.90
2019-06-26T09:32:55.435Z,99.90
2019-06-26T09:35:23.104Z,99.90
2019-06-26T09:37:50.749Z,99.90
2019-06-26T09:40:18.602Z,99.90
2019-06-26T09:42:46.312Z,99.90
2019-06-26T09:45:14.033Z,99.90
2019-06-26T09:47:41.733Z,99.90
2019-06-26T09:50:09.462Z,99.90
2019-06-26T09:52:37.094Z,99.90
2019-06-26T09:55:05.114Z,99.90
2019-06-26T09:57:32.766Z,99.90
2019-06-26T10:00:00.415Z,99.90
2019-06-26T10:02:28.145Z,99.90
2019-06-26T10:04:55.779Z,99.90
2019-06-26T10:07:23.424Z,99.90
2019-06-26T10:09:51.103Z,99.90
2019-06-26T10:12:19.079Z,99.90
2019-06-26T10:14:48.129Z,99.90
2019-06-26T10:17:15.907Z,99.90
2019-06-26T10:19:43.576Z,99.90
2019-06-26T10:22:11.223Z,99.90
2019-06-26T10:24:38.886Z,99.90
2019-06-26T10:27:06.545Z,99.90
2019-06-26T10:32:01.556Z,99.90
2019-06-26T10:34:29.217Z,99.90
2019-06-26T10:36:56.919Z,99.90
2019-06-26T10:39:24.575Z,99.90
2019-06-26T10:41:54.897Z,99.90
2019-06-26T10:44:21.620Z,99.90
2019-06-26T10:46:49.282Z,98.80
2019-06-26T10:49:26.526Z,97.80
2019-06-26T10:51:46.333Z,96.60
2019-06-26T10:54:13.959Z,96.60
2019-06-26T10:56:41.625Z,97.30
2019-06-26T10:59:09.277Z,96.20
2019-06-26T11:01:36.930Z,95.60
2019-06-26T11:06:32.065Z,94.80
2019-06-26T11:08:59.718Z,96.30
2019-06-26T11:11:27.514Z,96.80
2019-06-26T11:13:55.147Z,99.90
2019-06-26T11:16:22.871Z,99.90
2019-06-26T11:18:50.530Z,99.90
2019-06-26T11:21:18.377Z,99.90
2019-06-26T11:26:13.487Z,93.70
2019-06-26T11:28:41.152Z,93.80
2019-06-26T11:31:08.819Z,93.20
2019-06-26T11:33:37.468Z,91.60
2019-06-26T11:36:05.160Z,89.10
2019-06-26T11:38:32.805Z,90.00
2019-06-26T11:43:29.736Z,89.90
2019-06-26T11:45:57.437Z,90.80
2019-06-26T11:48:25.151Z,86.60
2019-06-26T11:50:52.892Z,90.20
2019-06-26T11:53:20.545Z,86.40
2019-06-26T11:55:48.192Z,89.60
2019-06-26T11:58:15.836Z,83.90
2019-06-26T12:00:43.546Z,85.10
2019-06-26T12:03:13.344Z,85.20
2019-06-26T12:05:41.229Z,82.60
2019-06-26T12:08:08.927Z,78.50
2019-06-26T12:10:36.588Z,77.80
2019-06-26T12:13:04.493Z,77.70
2019-06-26T12:15:32.205Z,76.00
2019-06-26T12:17:59.844Z,71.30
2019-06-26T12:20:27.483Z,76.80
2019-06-26T12:22:55.204Z,76.10
2019-06-26T12:25:22.844Z,73.00
2019-06-26T12:27:50.503Z,69.60
2019-06-26T12:30:18.518Z,68.70
2019-06-26T12:33:01.521Z,69.20
2019-06-26T12:35:15.792Z,73.70
2019-06-26T12:37:43.473Z,67.90
2019-06-26T12:40:11.375Z,66.60
2019-06-26T12:42:39.028Z,70.80
2019-06-26T12:45:07.236Z,70.90
2019-06-26T12:47:34.886Z,67.90
2019-06-26T12:50:02.969Z,66.30
2019-06-26T12:52:30.672Z,65.70
2019-06-26T12:54:58.316Z,67.50
2019-06-26T12:57:25.981Z,65.30
2019-06-26T12:59:57.791Z,70.20
2019-06-26T13:02:22.988Z,67.00
2019-06-26T13:04:50.623Z,67.30
2019-06-26T13:07:18.277Z,65.20
2019-06-26T13:09:45.916Z,65.30
2019-06-26T13:12:13.570Z,64.80
2019-06-26T13:14:41.207Z,62.60
2019-06-26T13:17:08.870Z,65.80
2019-06-26T13:19:36.542Z,63.90
2019-06-26T13:22:04.239Z,63.20
2019-06-26T13:24:32.015Z,66.90
2019-06-26T13:26:59.772Z,61.80
2019-06-26T13:29:27.430Z,58.30
2019-06-26T13:31:55.092Z,57.20
2019-06-26T13:34:22.775Z,57.00
2019-06-26T13:36:50.415Z,56.50
2019-06-26T13:39:18.050Z,57.00
2019-06-26T13:41:45.708Z,56.00
2019-06-26T13:44:13.340Z,56.70
2019-06-26T13:46:40.987Z,57.50
2019-06-26T13:49:08.639Z,56.00
2019-06-26T13:51:36.358Z,53.90
2019-06-26T13:54:04.005Z,54.60
2019-06-26T13:56:31.719Z,53.60
2019-06-26T13:58:59.367Z,52.60
2019-06-26T14:01:27.040Z,52.50
2019-06-26T14:03:54.678Z,55.10
2019-06-26T14:06:22.332Z,50.60
2019-06-26T14:08:49.986Z,52.30
2019-06-26T14:11:17.624Z,52.10
2019-06-26T14:13:45.285Z,52.70
2019-06-26T14:18:40.383Z,53.40
2019-06-26T14:21:21.572Z,52.30
2019-06-26T14:23:38.029Z,53.10
2019-06-26T14:26:05.842Z,55.30
2019-06-26T14:28:33.505Z,57.90
2019-06-26T14:31:01.115Z,56.70
2019-06-26T14:33:28.776Z,57.20
2019-06-26T14:35:56.411Z,55.10
2019-06-26T14:38:24.093Z,53.80
2019-06-26T14:43:19.130Z,52.90
2019-06-26T14:45:46.789Z,52.60
2019-06-26T14:48:14.517Z,54.50
2019-06-26T14:50:42.151Z,52.30
2019-06-26T14:53:09.822Z,52.10
2019-06-26T14:55:37.468Z,52.20
2019-06-26T14:58:05.128Z,51.70
2019-06-26T15:00:32.768Z,50.40
2019-06-26T15:03:00.412Z,51.20
2019-06-26T15:05:28.059Z,51.50
2019-06-26T15:07:55.703Z,52.30
2019-06-26T15:10:23.346Z,52.00
2019-06-26T15:12:50.998Z,53.10
2019-06-26T15:15:18.824Z,52.70
2019-06-26T15:17:46.478Z,51.40
2019-06-26T15:20:15.413Z,50.60
2019-06-26T15:22:43.104Z,49.80
2019-06-26T15:25:11.133Z,52.60
2019-06-26T15:27:38.795Z,54.40
2019-06-26T15:30:06.815Z,53.50
2019-06-26T15:32:34.468Z,53.00
2019-06-26T15:35:02.389Z,53.00
2019-06-26T15:37:30.047Z,51.20
2019-06-26T15:39:57.700Z,52.40
2019-06-26T15:42:25.347Z,50.80
2019-06-26T15:44:53.009Z,49.60
2019-06-26T15:47:20.696Z,47.40
2019-06-26T15:49:48.340Z,49.20
2019-06-26T15:52:15.995Z,48.50
2019-06-26T15:54:43.674Z,47.90
2019-06-26T15:57:11.368Z,47.20
2019-06-26T15:59:41.854Z,49.10
2019-06-26T16:02:09.494Z,50.40
2019-06-26T16:04:37.219Z,51.60
2019-06-26T16:07:04.864Z,50.90
2019-06-26T16:09:32.520Z,49.80
2019-06-26T16:12:00.169Z,51.30
2019-06-26T16:14:27.824Z,49.80
2019-06-26T16:16:57.281Z,51.80
2019-06-26T16:19:25.626Z,51.70
2019-06-26T16:21:53.278Z,50.10
2019-06-26T16:24:20.939Z,49.10
2019-06-26T16:26:48.595Z,48.00
2019-06-26T16:29:16.247Z,47.50
2019-06-26T16:31:43.954Z,47.90
2019-06-26T16:34:11.663Z,50.30
2019-06-26T16:36:39.315Z,51.90
2019-06-26T16:39:07.333Z,51.50
2019-06-26T16:41:35.560Z,51.60
2019-06-26T16:44:03.304Z,52.60
2019-06-26T16:46:31.033Z,52.40
2019-06-26T16:48:58.690Z,52.90
2019-06-26T16:51:26.351Z,52.80
2019-06-26T16:53:54.034Z,53.50
2019-06-26T16:56:21.683Z,53.30
2019-06-26T16:58:49.339Z,51.40
2019-06-26T17:01:17.051Z,72.00
2019-06-26T17:11:06.979Z,57.50
2019-06-26T17:13:35.583Z,58.80
2019-06-26T17:16:03.289Z,59.60
2019-06-26T17:20:58.307Z,60.50
2019-06-26T17:23:25.966Z,62.50
2019-06-26T17:28:20.983Z,62.80
2019-06-26T17:33:15.991Z,65.60
2019-06-26T17:35:43.639Z,65.30
2019-06-26T17:38:12.044Z,65.70
2019-06-26T17:40:39.703Z,66.10
2019-06-26T17:43:12.251Z,67.70
2019-06-26T17:45:36.708Z,67.90
2019-06-26T17:48:04.352Z,69.40
2019-06-26T17:50:32.008Z,71.90
2019-06-26T17:53:00.276Z,73.10
2019-06-26T17:55:29.057Z,74.40
2019-06-26T17:57:56.745Z,75.30
2019-06-26T18:00:25.935Z,76.10
2019-06-26T18:02:53.593Z,77.10
2019-06-26T18:05:21.263Z,77.80
2019-06-26T18:07:48.976Z,78.80
2019-06-26T18:10:16.719Z,79.30
2019-06-26T18:15:11.812Z,80.30
2019-06-26T18:17:39.458Z,83.20
2019-06-26T18:20:08.303Z,81.80
2019-06-26T18:22:35.948Z,84.50
2019-06-26T18:25:04.268Z,83.90
2019-06-26T18:29:59.370Z,88.40
2019-06-26T18:32:27.121Z,90.50
2019-06-26T18:34:54.896Z,89.10
2019-06-26T18:37:22.524Z,91.10
2019-06-26T18:39:50.175Z,91.50
2019-06-26T18:42:17.826Z,93.80
2019-06-26T18:44:45.475Z,94.60
2019-06-26T18:47:13.125Z,95.80
2019-06-26T18:49:40.774Z,99.90
2019-06-26T18:54:37.706Z,97.90
2019-06-26T18:57:05.355Z,99.40
2019-06-26T18:59:33.017Z,99.90
2019-06-26T19:02:00.655Z,99.90
2019-06-26T19:04:28.526Z,99.90
2019-06-26T19:06:56.282Z,99.90
2019-06-26T19:09:23.979Z,99.90
2019-06-26T19:11:52.586Z,99.90
2019-06-26T19:14:20.284Z,99.90
2019-06-26T19:19:15.400Z,99.90
2019-06-26T19:21:43.099Z,99.90
2019-06-26T19:24:10.913Z,99.90
2019-06-26T19:26:38.640Z,99.90
2019-06-26T19:29:06.302Z,99.90
2019-06-26T19:31:33.972Z,99.90
2019-06-26T19:34:01.671Z,99.90
2019-06-26T19:36:29.362Z,99.90
2019-06-26T19:38:57.050Z,99.90
2019-06-26T19:41:24.767Z,99.90
2019-06-26T19:43:52.437Z,99.90
2019-06-26T19:46:20.095Z,99.90
2019-06-26T19:48:47.726Z,99.90
2019-06-26T19:51:15.387Z,99.90
2019-06-26T19:53:44.028Z,99.90
2019-06-26T19:56:11.699Z,99.90
2019-06-26T19:58:39.390Z,99.90
2019-06-26T20:01:07.052Z,99.90
2019-06-26T20:03:43.684Z,99.90
2019-06-26T20:06:11.327Z,99.90
2019-06-26T20:08:51.611Z,99.90
2019-06-26T20:11:08.339Z,99.90
2019-06-26T20:13:35.987Z,99.90
2019-06-26T20:16:03.683Z,99.90
2019-06-26T20:18:31.339Z,99.90
2019-06-26T20:20:58.988Z,99.90
2019-06-26T20:23:26.641Z,99.90
2019-06-26T20:25:54.315Z,99.90
2019-06-26T20:28:22.013Z,99.90
2019-06-26T20:30:49.648Z,99.90
2019-06-26T20:33:17.284Z,99.90
2019-06-26T20:35:44.935Z,99.90
2019-06-26T20:38:12.576Z,99.90
2019-06-26T20:40:40.240Z,99.90
2019-06-26T20:43:07.884Z,99.90
2019-06-26T20:45:35.543Z,99.90
2019-06-26T20:48:03.171Z,99.90
2019-06-26T20:50:30.831Z,99.90
2019-06-26T20:52:58.472Z,99.90
2019-06-26T20:55:26.185Z,99.90
2019-06-26T20:57:53.831Z,99.90
2019-06-26T21:02:53.979Z,99.90
2019-06-26T21:05:19.795Z,99.90
2019-06-26T21:07:47.444Z,99.90
2019-06-26T21:10:15.171Z,99.90
2019-06-26T21:12:42.878Z,99.90
2019-06-26T21:15:10.600Z,99.90
2019-06-26T21:17:38.256Z,99.90
2019-06-26T21:20:06.061Z,99.90
2019-06-26T21:22:33.708Z,99.90
2019-06-26T21:25:16.891Z,99.90
2019-06-26T21:27:32.292Z,99.90
2019-06-26T21:30:00.155Z,99.90
2019-06-26T21:32:27.799Z,99.90
2019-06-26T21:34:55.431Z,99.90
2019-06-26T21:37:23.086Z,99.90
2019-06-26T21:39:50.716Z,99.90
2019-06-26T21:42:18.362Z,99.90
2019-06-26T21:44:46.004Z,99.90
2019-06-26T21:47:13.680Z,99.90
2019-06-26T21:52:08.756Z,99.90
2019-06-26T21:54:36.398Z,99.90
2019-06-26T21:57:04.031Z,99.90
2019-06-26T21:59:31.672Z,99.90
2019-06-26T22:01:59.339Z,99.90
2019-06-26T22:06:54.680Z,99.90
2019-06-26T22:09:22.328Z,99.90
2019-06-26T22:11:49.996Z,99.90
2019-06-26T22:14:17.631Z,99.90
2019-06-26T22:16:45.287Z,99.90
2019-06-26T22:19:12.925Z,99.90
2019-06-26T22:21:40.579Z,99.90
2019-06-26T22:24:08.287Z,99.90
2019-06-26T22:26:35.933Z,99.90
2019-06-26T22:29:03.591Z,99.90
2019-06-26T22:31:31.234Z,99.90
2019-06-26T22:33:58.871Z,99.90
2019-06-26T22:36:26.531Z,99.90
2019-06-26T22:38:54.169Z,99.90
2019-06-26T22:41:21.820Z,99.90
2019-06-26T22:43:49.471Z,99.90
2019-06-26T22:46:17.107Z,99.90
2019-06-26T22:48:44.769Z,99.90
2019-06-26T22:51:12.421Z,99.90
2019-06-26T22:53:40.078Z,99.90
2019-06-26T22:56:08.374Z,99.90
2019-06-26T22:58:36.150Z,99.90
2019-06-26T23:01:03.793Z,99.90
2019-06-26T23:03:32.400Z,99.90
2019-06-26T23:06:00.041Z,99.90
2019-06-26T23:08:27.697Z,99.90
2019-06-26T23:10:55.349Z,99.90
2019-06-26T23:13:23.976Z,99.90
2019-06-26T23:15:51.624Z,99.90
2019-06-26T23:18:19.305Z,99.90
2019-06-26T23:20:47.004Z,99.90
2019-06-26T23:23:14.660Z,99.90
2019-06-26T23:25:42.311Z,99.90
2019-06-26T23:28:09.985Z,99.90
2019-06-26T23:30:37.725Z,99.90
2019-06-26T23:33:05.380Z,99.90
2019-06-26T23:35:33.024Z,99.90
2019-06-26T23:38:00.684Z,99.90
2019-06-26T23:40:28.348Z,99.90
2019-06-26T23:42:55.993Z,99.90
2019-06-26T23:45:23.649Z,99.90
2019-06-26T23:47:51.308Z,99.90
2019-06-26T23:50:18.952Z,99.90
2019-06-26T23:52:47.594Z,99.90
2019-06-26T23:55:15.236Z,99.90
2019-06-26T23:57:58.060Z,99.90
